Deane, Kentucky
Current Conditions -  °F | °C
As of 12:55 PM on Tuesday 21 Oct 2014 (Local Time) from KLNP Reporting Station
Overcast Overcast  
Wind Chill: 11°   Ceiling: 4100
Heat Index: 11°   Visibility: 10mi
Dew Point:   Wind: 9mph
Humidity: 67%   Direction: 280°W
Pressure: 30.02"   Gusts: 20mph
Location:  37.24°N, 82.78°W
Report Text: KLNP 211655Z AUTO 28008G17KT 10SM SCT025 SCT031 OVC041 11/05 A3002 RMK AO2
Loading
Personal Weather Stations






























Interactive Weather Map
Tropical Storm Tracking
New forecast layout! Learn more

10-Day Weather Forecast

Advertisements
Track Severe Weather on mobile